createdAt,value
2019-02-08T00:02:15.760Z,79.30
2019-02-08T00:04:43.360Z,76.47
2019-02-08T00:07:11.169Z,71.60
2019-02-08T00:09:38.750Z,74.93
2019-02-08T00:12:06.300Z,79.90
2019-02-08T00:14:33.833Z,75.57
2019-02-08T00:17:01.364Z,72.17
2019-02-08T00:19:28.934Z,69.07
2019-02-08T00:21:56.436Z,61.77
2019-02-08T00:24:23.932Z,76.87
2019-02-08T00:26:51.583Z,70.87
2019-02-08T00:29:19.098Z,71.80
2019-02-08T00:31:46.632Z,67.33
2019-02-08T00:34:14.180Z,70.77
2019-02-08T00:36:41.754Z,72.00
2019-02-08T00:39:10.441Z,68.67
2019-02-08T00:41:37.998Z,66.10
2019-02-08T00:44:05.700Z,69.07
2019-02-08T00:46:33.246Z,66.23
2019-02-08T00:49:00.802Z,77.00
2019-02-08T00:51:28.315Z,70.10
2019-02-08T00:53:55.830Z,68.97
2019-02-08T00:56:23.411Z,63.20
2019-02-08T00:58:51.054Z,71.70
2019-02-08T01:01:18.574Z,64.93
2019-02-08T01:03:46.254Z,72.63
2019-02-08T01:06:13.762Z,66.17
2019-02-08T01:08:41.294Z,71.73
2019-02-08T01:11:08.874Z,67.87
2019-02-08T01:13:36.392Z,68.37
2019-02-08T01:16:04.571Z,69.10
2019-02-08T01:18:32.096Z,67.63
2019-02-08T01:20:59.591Z,71.33
2019-02-08T01:23:27.155Z,66.33
2019-02-08T01:25:54.671Z,67.67
2019-02-08T01:28:22.200Z,68.50
2019-02-08T01:30:49.786Z,72.50
2019-02-08T01:33:17.298Z,71.80
2019-02-08T01:35:44.921Z,79.47
2019-02-08T01:38:12.500Z,64.70
2019-02-08T01:40:40.062Z,62.57
2019-02-08T01:43:07.970Z,67.67
2019-02-08T01:45:36.154Z,77.43
2019-02-08T01:48:04.903Z,61.63
2019-02-08T01:50:32.414Z,66.20
2019-02-08T01:53:00.062Z,70.20
2019-02-08T01:55:27.760Z,61.83
2019-02-08T01:57:55.526Z,66.47
2019-02-08T02:00:25.872Z,68.40
2019-02-08T02:02:53.520Z,76.03
2019-02-08T02:05:21.404Z,65.70
2019-02-08T02:07:48.944Z,74.07
2019-02-08T02:10:20.518Z,80.00
2019-02-08T02:12:48.274Z,74.03
2019-02-08T02:15:18.396Z,73.53
2019-02-08T02:17:45.886Z,74.23
2019-02-08T02:20:14.814Z,70.27
2019-02-08T02:22:42.315Z,70.80
2019-02-08T02:25:10.308Z,72.33
2019-02-08T02:27:37.870Z,72.47
2019-02-08T02:30:08.201Z,72.47
2019-02-08T02:32:35.702Z,67.93
2019-02-08T02:35:04.486Z,69.87
2019-02-08T02:37:32.007Z,70.43
2019-02-08T02:39:59.546Z,68.67
2019-02-08T02:42:27.072Z,69.40
2019-02-08T02:44:54.666Z,66.90
2019-02-08T02:47:22.188Z,73.10
2019-02-08T02:49:49.789Z,69.03
2019-02-08T02:52:17.502Z,75.80
2019-02-08T02:54:45.003Z,75.93
2019-02-08T02:57:12.572Z,80.00
2019-02-08T02:59:40.094Z,79.13
2019-02-08T03:02:07.759Z,70.27
2019-02-08T03:04:35.283Z,78.40
2019-02-08T03:07:02.908Z,76.73
2019-02-08T03:09:30.423Z,75.20
2019-02-08T03:11:57.939Z,74.13
2019-02-08T03:14:25.527Z,78.37
2019-02-08T03:16:53.050Z,75.77
2019-02-08T03:19:20.629Z,72.63
2019-02-08T03:21:48.190Z,71.47
2019-02-08T03:24:15.718Z,68.97
2019-02-08T03:26:43.223Z,76.50
2019-02-08T03:29:10.772Z,71.70
2019-02-08T03:31:38.291Z,74.47
2019-02-08T03:34:05.809Z,64.20
2019-02-08T03:36:33.337Z,72.50
2019-02-08T03:39:00.866Z,76.17
2019-02-08T03:41:28.398Z,74.13
2019-02-08T03:43:55.990Z,66.87
2019-02-08T03:46:23.482Z,70.70
2019-02-08T03:48:51.128Z,73.60
2019-02-08T03:51:19.874Z,69.27
2019-02-08T03:53:47.405Z,74.33
2019-02-08T03:56:17.804Z,61.73
2019-02-08T03:58:45.345Z,67.93
2019-02-08T04:01:13.693Z,69.77
2019-02-08T04:03:41.563Z,70.83
2019-02-08T04:06:09.119Z,72.30
2019-02-08T04:08:36.654Z,69.70
2019-02-08T04:11:04.276Z,87.40
2019-02-08T04:13:31.847Z,84.70
2019-02-08T04:15:59.401Z,93.97
2019-02-08T04:18:26.902Z,75.63
2019-02-08T04:20:54.453Z,72.67
2019-02-08T04:23:22.002Z,87.43
2019-02-08T04:25:50.107Z,72.03
2019-02-08T04:28:17.799Z,82.73
2019-02-08T04:30:45.323Z,92.63
2019-02-08T04:33:12.854Z,77.80
2019-02-08T04:35:40.419Z,78.77
2019-02-08T04:38:07.902Z,80.27
2019-02-08T04:40:35.411Z,75.80
2019-02-08T04:43:03.203Z,89.13
2019-02-08T04:45:30.743Z,83.97
2019-02-08T04:47:58.403Z,79.13
2019-02-08T04:50:25.996Z,69.27
2019-02-08T04:52:53.889Z,78.70
2019-02-08T04:55:21.661Z,70.93
2019-02-08T04:57:49.205Z,75.67
2019-02-08T05:00:25.623Z,69.03
2019-02-08T05:02:53.174Z,73.13
2019-02-08T05:05:20.985Z,76.33
2019-02-08T05:07:48.514Z,80.67
2019-02-08T05:10:18.468Z,70.80
2019-02-08T05:12:46.587Z,77.60
2019-02-08T05:15:14.347Z,74.97
2019-02-08T05:17:41.907Z,74.37
2019-02-08T05:20:11.086Z,72.33
2019-02-08T05:22:38.605Z,72.17
2019-02-08T05:25:06.439Z,69.13
2019-02-08T05:27:33.947Z,73.07
2019-02-08T05:30:01.592Z,71.83
2019-02-08T05:32:29.163Z,68.57
2019-02-08T05:34:56.697Z,75.47
2019-02-08T05:37:24.227Z,74.23
2019-02-08T05:39:51.798Z,75.60
2019-02-08T05:42:19.301Z,73.13
2019-02-08T05:44:46.824Z,74.33
2019-02-08T05:47:14.359Z,78.33
2019-02-08T05:49:41.861Z,77.30
2019-02-08T05:52:09.473Z,71.50
2019-02-08T05:54:36.962Z,68.20
2019-02-08T05:57:04.603Z,76.30
2019-02-08T05:59:32.147Z,67.53
2019-02-08T06:01:59.697Z,80.10
2019-02-08T06:04:27.267Z,66.20
2019-02-08T06:06:54.795Z,78.00
2019-02-08T06:09:22.497Z,71.07
2019-02-08T06:11:50.093Z,73.93
2019-02-08T06:14:17.638Z,73.73
2019-02-08T06:16:46.918Z,73.37
2019-02-08T06:19:14.478Z,78.73
2019-02-08T06:21:42.023Z,70.57
2019-02-08T06:24:09.537Z,73.60
2019-02-08T06:26:37.125Z,75.23
2019-02-08T06:29:04.721Z,78.90
2019-02-08T06:31:32.225Z,80.17
2019-02-08T06:34:01.270Z,85.40
2019-02-08T06:36:32.897Z,80.47
2019-02-08T06:39:00.577Z,79.50
2019-02-08T06:41:33.773Z,77.97
2019-02-08T06:44:02.455Z,71.27
2019-02-08T06:46:30.402Z,75.30
2019-02-08T06:48:57.976Z,73.63
2019-02-08T06:51:25.669Z,82.37
2019-02-08T06:53:55.356Z,70.17
2019-02-08T06:56:40.901Z,76.50
2019-02-08T06:59:27.991Z,93.07
2019-02-08T07:02:14.022Z,72.87
2019-02-08T07:05:20.358Z,76.03
2019-02-08T07:08:08.489Z,72.03
2019-02-08T07:10:49.675Z,71.23
2019-02-08T07:13:45.701Z,70.57
2019-02-08T07:16:37.467Z,71.77
2019-02-08T07:19:37.059Z,70.40
2019-02-08T07:22:32.809Z,71.20
2019-02-08T07:25:19.879Z,69.27
2019-02-08T07:27:57.058Z,63.37
2019-02-08T07:31:10.131Z,66.70
2019-02-08T07:33:59.945Z,70.03
2019-02-08T07:36:35.159Z,68.90
2019-02-08T07:39:21.105Z,71.47
2019-02-08T07:42:02.572Z,72.07
2019-02-08T07:44:47.253Z,69.27
2019-02-08T07:47:43.885Z,63.83
2019-02-08T07:50:36.717Z,70.17
2019-02-08T07:53:17.899Z,76.43
2019-02-08T07:56:02.483Z,74.77
2019-02-08T07:58:51.197Z,70.93
2019-02-08T08:01:44.197Z,66.30
2019-02-08T08:04:37.419Z,67.73
2019-02-08T08:07:36.635Z,77.70
2019-02-08T08:10:24.777Z,62.00
2019-02-08T08:13:04.359Z,67.13
2019-02-08T08:15:56.165Z,67.67
2019-02-08T08:18:52.517Z,67.50
2019-02-08T08:21:42.432Z,66.53
2019-02-08T08:24:33.576Z,60.77
2019-02-08T08:27:33.507Z,63.97
2019-02-08T08:30:20.695Z,59.47
2019-02-08T08:33:19.039Z,68.37
2019-02-08T08:36:26.803Z,62.87
2019-02-08T08:39:45.034Z,65.63
2019-02-08T08:43:08.845Z,59.13
2019-02-08T08:46:13.105Z,57.27
2019-02-08T08:49:07.365Z,61.87
2019-02-08T08:52:28.863Z,57.63
2019-02-08T08:55:46.009Z,67.53
2019-02-08T08:59:03.337Z,57.97
2019-02-08T09:02:08.273Z,60.90
2019-02-08T09:05:07.381Z,59.17
2019-02-08T09:08:22.803Z,64.27
2019-02-08T09:11:46.263Z,64.03
2019-02-08T09:14:51.417Z,73.83
2019-02-08T09:17:55.699Z,60.53
2019-02-08T09:21:08.762Z,62.13
2019-02-08T09:24:00.265Z,61.23
2019-02-08T09:27:00.699Z,64.63
2019-02-08T09:30:00.513Z,70.30
2019-02-08T09:33:15.103Z,65.17
2019-02-08T09:36:20.080Z,69.03
2019-02-08T09:39:25.066Z,61.33
2019-02-08T09:42:23.503Z,61.70
2019-02-08T09:45:35.773Z,67.43
2019-02-08T09:48:42.115Z,60.93
2019-02-08T09:51:57.060Z,65.10
2019-02-08T09:55:12.465Z,60.17
2019-02-08T09:58:36.218Z,55.57
2019-02-08T10:01:44.393Z,67.20
2019-02-08T10:05:18.317Z,62.27
2019-02-08T10:08:34.803Z,61.90
2019-02-08T10:11:28.055Z,60.47
2019-02-08T10:14:52.513Z,60.33
2019-02-08T10:17:57.918Z,54.60
2019-02-08T10:21:22.393Z,63.50
2019-02-08T10:24:22.749Z,64.27
2019-02-08T10:27:27.911Z,63.87
2019-02-08T10:30:53.125Z,60.77
2019-02-08T10:34:13.383Z,70.47
2019-02-08T10:37:27.703Z,115.87
2019-02-08T10:40:47.884Z,60.30
2019-02-08T10:43:52.676Z,56.57
2019-02-08T10:46:57.117Z,65.90
2019-02-08T10:50:01.069Z,65.97
2019-02-08T10:53:18.377Z,57.67
2019-02-08T10:56:26.556Z,64.00
2019-02-08T10:59:47.288Z,57.17
2019-02-08T11:02:55.367Z,60.67
2019-02-08T11:06:00.616Z,59.40
2019-02-08T11:09:05.834Z,69.60
2019-02-08T11:12:09.426Z,72.07
2019-02-08T11:15:06.602Z,77.43
2019-02-08T11:18:19.975Z,61.27
2019-02-08T11:20:48.904Z,66.10
2019-02-08T11:23:16.466Z,68.73
2019-02-08T11:25:44.109Z,70.80
2019-02-08T11:28:11.709Z,64.90
2019-02-08T11:30:39.283Z,55.70
2019-02-08T11:33:09.439Z,62.13
2019-02-08T11:35:37.257Z,65.00
2019-02-08T11:38:17.624Z,58.17
2019-02-08T11:41:04.655Z,58.73
2019-02-08T11:43:33.367Z,59.53
2019-02-08T11:46:04.845Z,63.30
2019-02-08T11:48:33.061Z,62.47
2019-02-08T11:51:00.749Z,61.03
2019-02-08T11:53:33.433Z,64.10
2019-02-08T11:56:01.013Z,57.73
2019-02-08T11:58:28.713Z,57.63
2019-02-08T12:00:57.676Z,53.73
2019-02-08T12:03:25.448Z,53.00
2019-02-08T12:05:53.119Z,60.07
2019-02-08T12:08:20.719Z,60.77
2019-02-08T12:10:48.373Z,62.70
2019-02-08T12:13:16.005Z,52.70
2019-02-08T12:15:43.656Z,61.40
2019-02-08T12:18:11.467Z,64.23
2019-02-08T12:20:39.093Z,62.33
2019-02-08T12:23:07.605Z,64.37
2019-02-08T12:25:35.145Z,52.30
2019-02-08T12:28:02.917Z,55.90
2019-02-08T12:30:37.021Z,61.23
2019-02-08T12:33:10.221Z,60.57
2019-02-08T12:35:37.631Z,52.40
2019-02-08T12:38:05.206Z,57.30
2019-02-08T12:40:34.027Z,60.00
2019-02-08T12:43:04.445Z,57.70
2019-02-08T12:45:32.387Z,67.27
2019-02-08T12:48:00.155Z,61.70
2019-02-08T12:50:28.984Z,55.10
2019-02-08T12:52:56.520Z,59.53
2019-02-08T12:55:35.494Z,57.10
2019-02-08T12:58:05.518Z,56.53
2019-02-08T13:00:33.424Z,61.53
2019-02-08T13:03:00.999Z,60.03
2019-02-08T13:05:28.647Z,68.30
2019-02-08T13:07:56.226Z,76.63
2019-02-08T13:10:24.013Z,72.50
2019-02-08T13:12:52.185Z,75.00
2019-02-08T13:15:23.886Z,74.13
2019-02-08T13:17:51.632Z,73.63
2019-02-08T13:20:19.335Z,60.93
2019-02-08T13:22:46.942Z,59.67
2019-02-08T13:25:15.939Z,54.57
2019-02-08T13:27:43.481Z,63.83
2019-02-08T13:30:17.404Z,50.40
2019-02-08T13:32:44.928Z,57.37
2019-02-08T13:35:12.553Z,60.37
2019-02-08T13:37:40.140Z,54.07
2019-02-08T13:40:09.372Z,52.70
2019-02-08T13:42:38.032Z,53.57
2019-02-08T13:45:05.899Z,54.30
2019-02-08T13:47:51.103Z,62.93
2019-02-08T13:50:22.710Z,62.70
2019-02-08T13:52:50.252Z,52.07
2019-02-08T13:55:19.301Z,62.40
2019-02-08T13:57:46.818Z,58.53
2019-02-08T14:00:26.491Z,55.80
2019-02-08T14:02:54.161Z,59.33
2019-02-08T14:05:23.828Z,51.60
2019-02-08T14:07:51.409Z,61.33
2019-02-08T14:10:19.364Z,51.10
2019-02-08T14:12:46.861Z,55.13
2019-02-08T14:15:15.683Z,63.57
2019-02-08T14:17:43.197Z,59.50
2019-02-08T14:20:13.737Z,59.87
2019-02-08T14:22:41.298Z,67.50
2019-02-08T14:25:09.811Z,50.37
2019-02-08T14:27:37.308Z,51.97
2019-02-08T14:30:09.432Z,54.23
2019-02-08T14:32:36.973Z,57.70
2019-02-08T14:35:05.336Z,59.70
2019-02-08T14:37:32.925Z,53.53
2019-02-08T14:40:00.437Z,51.93
2019-02-08T14:42:27.936Z,53.77
2019-02-08T14:44:55.539Z,56.63
2019-02-08T14:47:23.082Z,54.33
2019-02-08T14:49:50.717Z,56.87
2019-02-08T14:52:18.205Z,50.80
2019-02-08T14:54:45.709Z,55.93
2019-02-08T14:57:16.687Z,46.93
2019-02-08T14:59:42.623Z,47.57
2019-02-08T15:02:10.276Z,51.60
2019-02-08T15:04:37.817Z,58.80
2019-02-08T15:07:05.312Z,51.30
2019-02-08T15:09:32.860Z,47.87
2019-02-08T15:12:00.378Z,50.83
2019-02-08T15:14:27.885Z,51.67
2019-02-08T15:16:55.437Z,52.03
2019-02-08T15:19:22.942Z,47.80
2019-02-08T15:21:50.445Z,45.83
2019-02-08T15:24:18.003Z,51.67
2019-02-08T15:26:45.479Z,48.90
2019-02-08T15:29:12.988Z,40.83
2019-02-08T15:31:40.588Z,53.43
2019-02-08T15:34:08.093Z,64.93
2019-02-08T15:36:35.664Z,80.57
2019-02-08T15:39:08.504Z,81.90
2019-02-08T15:41:36.028Z,57.93
2019-02-08T15:44:03.788Z,51.43
2019-02-08T15:46:31.313Z,52.73
2019-02-08T15:48:58.856Z,52.83
2019-02-08T15:51:26.396Z,49.53
2019-02-08T15:53:53.939Z,56.70
2019-02-08T15:56:21.582Z,57.20
2019-02-08T15:58:49.121Z,43.17
2019-02-08T16:01:16.758Z,55.80
2019-02-08T16:03:44.370Z,49.37
2019-02-08T16:06:11.897Z,52.57
2019-02-08T16:08:39.438Z,52.07
2019-02-08T16:11:06.978Z,49.17
2019-02-08T16:13:35.134Z,54.50
2019-02-08T16:16:03.084Z,56.73
2019-02-08T16:18:30.765Z,58.73
2019-02-08T16:20:58.252Z,75.73
2019-02-08T16:23:25.863Z,63.70
2019-02-08T16:25:53.407Z,71.73
2019-02-08T16:28:20.935Z,64.97
2019-02-08T16:30:48.520Z,87.27
2019-02-08T16:33:16.066Z,105.50
2019-02-08T16:35:43.576Z,103.80
2019-02-08T16:38:11.143Z,99.60
2019-02-08T16:40:38.703Z,107.00
2019-02-08T16:43:06.312Z,102.07
2019-02-08T16:45:34.630Z,99.43
2019-02-08T16:48:02.933Z,105.53
2019-02-08T16:50:31.244Z,116.87
2019-02-08T16:52:58.740Z,106.20
2019-02-08T16:55:26.291Z,93.43
2019-02-08T16:57:53.788Z,101.33
2019-02-08T17:00:30.002Z,102.27
2019-02-08T17:02:59.358Z,95.27
2019-02-08T17:05:28.280Z,115.33
2019-02-08T17:07:55.838Z,120.17
2019-02-08T17:10:23.589Z,128.63
2019-02-08T17:12:51.678Z,103.57
2019-02-08T17:15:21.031Z,139.63
2019-02-08T17:17:48.522Z,156.10
2019-02-08T17:20:19.666Z,170.57
2019-02-08T17:22:47.162Z,173.13
2019-02-08T17:25:14.778Z,156.03
2019-02-08T17:27:44.048Z,164.50
2019-02-08T17:30:13.590Z,179.33
2019-02-08T17:32:41.220Z,181.10
2019-02-08T17:35:09.886Z,181.33
2019-02-08T17:37:37.382Z,194.13
2019-02-08T17:40:07.196Z,195.57
2019-02-08T17:42:34.766Z,209.83
2019-02-08T17:45:02.307Z,179.30
2019-02-08T17:47:29.850Z,256.07
2019-02-08T17:49:57.383Z,258.77
2019-02-08T17:52:24.908Z,198.17
2019-02-08T17:54:52.440Z,150.70
2019-02-08T17:57:20.072Z,122.27
2019-02-08T17:59:47.566Z,102.47
2019-02-08T18:02:15.100Z,105.17
2019-02-08T18:04:42.621Z,94.77
2019-02-08T18:07:10.130Z,88.93
2019-02-08T18:09:37.693Z,72.60
2019-02-08T18:12:05.250Z,73.27
2019-02-08T18:14:32.772Z,82.70
2019-02-08T18:17:00.294Z,86.97
2019-02-08T18:19:27.847Z,92.43
2019-02-08T18:21:55.364Z,79.33
2019-02-08T18:24:22.872Z,82.67
2019-02-08T18:26:50.406Z,83.20
2019-02-08T18:29:17.934Z,83.63
2019-02-08T18:31:45.454Z,112.63
2019-02-08T18:34:12.996Z,197.70
2019-02-08T18:36:40.525Z,172.47
2019-02-08T18:39:08.082Z,167.90
2019-02-08T18:41:35.632Z,171.80
2019-02-08T18:44:03.250Z,188.10
2019-02-08T18:46:30.742Z,248.20
2019-02-08T18:48:58.406Z,257.97
2019-02-08T18:51:25.986Z,244.87
2019-02-08T18:53:53.513Z,279.60
2019-02-08T18:56:21.094Z,301.60
2019-02-08T18:58:48.620Z,278.83
2019-02-08T19:01:18.158Z,294.43
2019-02-08T19:03:45.719Z,309.93
2019-02-08T19:06:13.215Z,337.77
2019-02-08T19:08:40.744Z,331.73
2019-02-08T19:11:08.311Z,334.23
2019-02-08T19:13:35.820Z,364.43
2019-02-08T19:16:03.950Z,396.40
2019-02-08T19:18:31.511Z,382.37
2019-02-08T19:20:59.032Z,371.70
2019-02-08T19:23:26.568Z,381.23
2019-02-08T19:25:54.112Z,367.90
2019-02-08T19:28:26.376Z,354.60
2019-02-08T19:30:50.964Z,366.27
2019-02-08T19:33:18.526Z,353.03
2019-02-08T19:35:46.037Z,364.23
2019-02-08T19:38:13.528Z,385.03
2019-02-08T19:40:42.875Z,347.20
2019-02-08T19:43:10.387Z,362.97
2019-02-08T19:45:37.995Z,331.50
2019-02-08T19:48:06.905Z,344.60
2019-02-08T19:50:36.462Z,325.60
2019-02-08T19:53:05.354Z,327.97
2019-02-08T19:55:32.903Z,320.70
2019-02-08T19:58:00.647Z,324.43
2019-02-08T20:00:30.183Z,351.53
2019-02-08T20:02:59.104Z,392.03
2019-02-08T20:05:27.174Z,340.97
2019-02-08T20:07:54.795Z,329.23
2019-02-08T20:10:27.288Z,345.87
2019-02-08T20:12:54.864Z,344.30
2019-02-08T20:15:22.420Z,348.20
2019-02-08T20:17:49.977Z,351.87
2019-02-08T20:20:17.582Z,316.77
2019-02-08T20:22:45.448Z,290.37
2019-02-08T20:25:20.492Z,270.43
2019-02-08T20:27:48.014Z,288.10
2019-02-08T20:30:19.758Z,274.90
2019-02-08T20:32:47.354Z,244.17
2019-02-08T20:35:16.897Z,241.33
2019-02-08T20:37:44.605Z,254.30
2019-02-08T20:40:39.136Z,249.37
2019-02-08T20:43:06.690Z,251.57
2019-02-08T20:45:34.456Z,232.00
2019-02-08T20:48:04.421Z,223.87
2019-02-08T20:50:32.045Z,215.63
2019-02-08T20:53:01.766Z,226.20
2019-02-08T20:55:30.474Z,228.27
2019-02-08T20:57:58.022Z,240.80
2019-02-08T21:00:37.254Z,220.77
2019-02-08T21:03:08.034Z,208.33
2019-02-08T21:05:35.773Z,195.60
2019-02-08T21:08:05.022Z,205.77
2019-02-08T21:10:32.562Z,187.67
2019-02-08T21:13:00.082Z,194.20
2019-02-08T21:15:27.758Z,206.23
2019-02-08T21:17:55.330Z,180.37
2019-02-08T21:20:23.137Z,179.40
2019-02-08T21:22:50.686Z,152.30
2019-02-08T21:25:21.063Z,180.83
2019-02-08T21:27:48.615Z,195.23
2019-02-08T21:30:16.683Z,199.43
2019-02-08T21:32:44.312Z,190.17
2019-02-08T21:35:12.047Z,181.63
2019-02-08T21:37:39.602Z,170.40
2019-02-08T21:40:08.605Z,163.70
2019-02-08T21:42:36.162Z,171.87
2019-02-08T21:45:07.096Z,168.43
2019-02-08T21:47:34.606Z,159.17
2019-02-08T21:50:06.156Z,160.93
2019-02-08T21:52:47.927Z,176.40
2019-02-08T21:55:16.636Z,170.53
2019-02-08T21:57:44.228Z,164.37
2019-02-08T22:00:19.076Z,164.00
2019-02-08T22:02:46.632Z,164.77
2019-02-08T22:05:16.066Z,158.27
2019-02-08T22:07:43.843Z,158.67
2019-02-08T22:10:11.703Z,140.37
2019-02-08T22:12:39.278Z,150.03
2019-02-08T22:15:10.444Z,134.63
2019-02-08T22:17:38.006Z,130.07
2019-02-08T22:20:07.563Z,132.00
2019-02-08T22:22:35.503Z,134.70
2019-02-08T22:25:05.518Z,140.30
2019-02-08T22:27:33.051Z,126.53
2019-02-08T22:30:00.662Z,132.50
2019-02-08T22:32:28.222Z,129.23
2019-02-08T22:34:55.757Z,142.20
2019-02-08T22:37:23.287Z,133.83
2019-02-08T22:39:50.960Z,131.80
2019-02-08T22:42:18.511Z,126.67
2019-02-08T22:44:46.002Z,129.60
2019-02-08T22:47:13.554Z,129.00
2019-02-08T22:49:41.063Z,118.73
2019-02-08T22:52:08.614Z,124.93
2019-02-08T22:54:36.122Z,127.17
2019-02-08T22:57:03.643Z,138.67
2019-02-08T22:59:31.947Z,145.33
2019-02-08T23:01:59.575Z,126.77
2019-02-08T23:04:27.114Z,128.50
2019-02-08T23:06:54.690Z,131.20
2019-02-08T23:09:23.531Z,134.67
2019-02-08T23:11:51.247Z,122.83
2019-02-08T23:14:18.759Z,127.67
2019-02-08T23:16:46.369Z,135.27
2019-02-08T23:19:13.905Z,138.20
2019-02-08T23:21:41.504Z,121.53
2019-02-08T23:24:09.089Z,133.37
2019-02-08T23:26:36.621Z,120.97
2019-02-08T23:29:04.365Z,150.97
2019-02-08T23:31:31.905Z,131.87
2019-02-08T23:33:59.492Z,133.80
2019-02-08T23:36:27.003Z,138.70
2019-02-08T23:38:54.529Z,140.10
2019-02-08T23:41:22.105Z,139.67
2019-02-08T23:43:49.618Z,141.93
2019-02-08T23:46:17.147Z,132.03
2019-02-08T23:48:44.728Z,145.53
2019-02-08T23:51:12.227Z,143.83
2019-02-08T23:53:39.749Z,146.10
2019-02-08T23:56:08.215Z,137.83
2019-02-08T23:58:35.726Z,133.07
